Time;durP1;ratioP1;P1;durP2;ratioP2;P2;SDS_P1;SDS_P2;PMS_P1;PMS_P2;Temp;Humidity;BMP_temperature;BMP_pressure;BME280_temperature;BME280_humidity;BME280_pressure;Samples;Min_cycle;Max_cycle;Signal;HPM_P1;HPM_P2
2020/02/23 00:01:56;;;;;;;2.9;1.3;;;;;;;;;;;;;
2020/02/23 00:04:28;;;;;;;3.2;1.3;;;;;;;;;;;;;
2020/02/23 00:07:01;;;;;;;1.5;1.1;;;;;;;;;;;;;
2020/02/23 00:09:33;;;;;;;2.2;1.2;;;;;;;;;;;;;
2020/02/23 00:12:05;;;;;;;2.2;1.1;;;;;;;;;;;;;
2020/02/23 00:14:41;;;;;;;2.1;1.3;;;;;;;;;;;;;
2020/02/23 00:17:13;;;;;;;1.8;1;;;;;;;;;;;;;
2020/02/23 00:19:45;;;;;;;2.6;1.2;;;;;;;;;;;;;
2020/02/23 00:22:17;;;;;;;1.7;1.2;;;;;;;;;;;;;
2020/02/23 00:24:49;;;;;;;1.6;1.2;;;;;;;;;;;;;
2020/02/23 00:27:21;;;;;;;1.5;1.1;;;;;;;;;;;;;
2020/02/23 00:29:53;;;;;;;3;1.3;;;;;;;;;;;;;
2020/02/23 00:32:25;;;;;;;3.6;1.1;;;;;;;;;;;;;
2020/02/23 00:34:58;;;;;;;1.4;1.2;;;;;;;;;;;;;
2020/02/23 00:37:30;;;;;;;1.1;1;;;;;;;;;;;;;
2020/02/23 00:40:02;;;;;;;1.7;1.2;;;;;;;;;;;;;
2020/02/23 00:42:34;;;;;;;2.5;1.2;;;;;;;;;;;;;
2020/02/23 00:45:06;;;;;;;1.9;1.2;;;;;;;;;;;;;
2020/02/23 00:47:38;;;;;;;1.2;1.1;;;;;;;;;;;;;
2020/02/23 00:50:10;;;;;;;1.2;1.1;;;;;;;;;;;;;
2020/02/23 00:52:42;;;;;;;1.6;1.1;;;;;;;;;;;;;
2020/02/23 00:55:14;;;;;;;1.4;1.2;;;;;;;;;;;;;
2020/02/23 00:57:46;;;;;;;1.7;1.1;;;;;;;;;;;;;
2020/02/23 01:00:18;;;;;;;1.2;1;;;;;;;;;;;;;
2020/02/23 01:03:02;;;;;;;1.3;1;;;;;;;;;;;;;
2020/02/23 01:05:34;;;;;;;2.1;1;;;;;;;;;;;;;
2020/02/23 01:08:06;;;;;;;1.8;1;;;;;;;;;;;;;
2020/02/23 01:10:40;;;;;;;2.4;1.2;;;;;;;;;;;;;
2020/02/23 01:13:13;;;;;;;2.4;1.3;;;;;;;;;;;;;
2020/02/23 01:15:46;;;;;;;1.7;1.1;;;;;;;;;;;;;
2020/02/23 01:18:19;;;;;;;2.1;1.2;;;;;;;;;;;;;
2020/02/23 01:20:51;;;;;;;1.5;1.2;;;;;;;;;;;;;
2020/02/23 01:23:23;;;;;;;1.6;1.2;;;;;;;;;;;;;
2020/02/23 01:26:02;;;;;;;2;1.1;;;;;;;;;;;;;
2020/02/23 01:28:33;;;;;;;1.7;1.1;;;;;;;;;;;;;
2020/02/23 01:31:05;;;;;;;1.2;1;;;;;;;;;;;;;
2020/02/23 01:33:37;;;;;;;2.6;1.2;;;;;;;;;;;;;
2020/02/23 01:36:09;;;;;;;1.5;1.2;;;;;;;;;;;;;
2020/02/23 01:38:41;;;;;;;1.7;1.1;;;;;;;;;;;;;
2020/02/23 01:41:13;;;;;;;1.1;1;;;;;;;;;;;;;
2020/02/23 01:43:46;;;;;;;1.4;1;;;;;;;;;;;;;
2020/02/23 01:46:18;;;;;;;1.8;1.2;;;;;;;;;;;;;
2020/02/23 01:48:50;;;;;;;1.3;1.2;;;;;;;;;;;;;
2020/02/23 01:51:22;;;;;;;1.4;1.1;;;;;;;;;;;;;
2020/02/23 01:54:56;;;;;;;1.4;1.1;;;;;;;;;;;;;
2020/02/23 01:57:30;;;;;;;1.2;1;;;;;;;;;;;;;
2020/02/23 02:00:03;;;;;;;1.5;1.3;;;;;;;;;;;;;
2020/02/23 02:02:52;;;;;;;1.7;1.2;;;;;;;;;;;;;
2020/02/23 02:05:40;;;;;;;1.6;1.2;;;;;;;;;;;;;
2020/02/23 02:08:29;;;;;;;2;1.2;;;;;;;;;;;;;
2020/02/23 02:11:18;;;;;;;1.9;1.1;;;;;;;;;;;;;
2020/02/23 02:14:06;;;;;;;1.2;1.1;;;;;;;;;;;;;
2020/02/23 02:16:55;;;;;;;2;1.2;;;;;;;;;;;;;
2020/02/23 02:19:43;;;;;;;1.3;1;;;;;;;;;;;;;
2020/02/23 02:22:32;;;;;;;1;0.9;;;;;;;;;;;;;
2020/02/23 02:25:21;;;;;;;1.2;1.1;;;;;;;;;;;;;
2020/02/23 02:28:09;;;;;;;1.5;1.1;;;;;;;;;;;;;
2020/02/23 02:30:58;;;;;;;1.7;1;;;;;;;;;;;;;
2020/02/23 02:34:24;;;;;;;1.7;1.3;;;;;;;;;;;;;
2020/02/23 02:36:36;;;;;;;1.4;1.1;;;;;;;;;;;;;
2020/02/23 02:39:25;;;;;;;1.2;1;;;;;;;;;;;;;
2020/02/23 02:42:14;;;;;;;1.7;1.2;;;;;;;;;;;;;
2020/02/23 02:45:03;;;;;;;1.2;1.1;;;;;;;;;;;;;
2020/02/23 02:47:51;;;;;;;1.1;0.9;;;;;;;;;;;;;
2020/02/23 02:50:40;;;;;;;1.1;1;;;;;;;;;;;;;
2020/02/23 02:53:29;;;;;;;1.4;1.1;;;;;;;;;;;;;
2020/02/23 02:56:18;;;;;;;1.3;1.2;;;;;;;;;;;;;
2020/02/23 02:59:08;;;;;;;1.7;1;;;;;;;;;;;;;
2020/02/23 03:01:56;;;;;;;1.4;1.1;;;;;;;;;;;;;
2020/02/23 03:04:45;;;;;;;1.8;1;;;;;;;;;;;;;
2020/02/23 03:07:34;;;;;;;1.1;1;;;;;;;;;;;;;
2020/02/23 03:10:23;;;;;;;1.5;1.2;;;;;;;;;;;;;
2020/02/23 03:13:12;;;;;;;1.5;1;;;;;;;;;;;;;
2020/02/23 03:16:01;;;;;;;1.3;1.1;;;;;;;;;;;;;
2020/02/23 03:18:50;;;;;;;1.4;1.1;;;;;;;;;;;;;
2020/02/23 03:21:39;;;;;;;1.4;1;;;;;;;;;;;;;
2020/02/23 03:24:28;;;;;;;1.3;1.2;;;;;;;;;;;;;
2020/02/23 03:27:17;;;;;;;1.5;1;;;;;;;;;;;;;
2020/02/23 03:30:06;;;;;;;2.1;1.2;;;;;;;;;;;;;
2020/02/23 03:32:55;;;;;;;1.5;1;;;;;;;;;;;;;
2020/02/23 03:35:44;;;;;;;1.6;1.1;;;;;;;;;;;;;
2020/02/23 03:38:33;;;;;;;1.1;1;;;;;;;;;;;;;
2020/02/23 03:41:22;;;;;;;1.3;1;;;;;;;;;;;;;
2020/02/23 03:44:11;;;;;;;1.1;1;;;;;;;;;;;;;
2020/02/23 03:47:00;;;;;;;1.5;1.1;;;;;;;;;;;;;
2020/02/23 03:49:49;;;;;;;1.4;1;;;;;;;;;;;;;
2020/02/23 03:52:38;;;;;;;1.7;1.1;;;;;;;;;;;;;
2020/02/23 03:55:27;;;;;;;1.5;1.1;;;;;;;;;;;;;
2020/02/23 03:58:16;;;;;;;1.8;1.2;;;;;;;;;;;;;
2020/02/23 04:05:35;;;;;;;1.1;1;;;;;;;;;;;;;
2020/02/23 04:08:23;;;;;;;1.3;1.1;;;;;;;;;;;;;
2020/02/23 04:11:12;;;;;;;1;0.9;;;;;;;;;;;;;
2020/02/23 04:14:01;;;;;;;1.5;1.2;;;;;;;;;;;;;
2020/02/23 04:16:49;;;;;;;1.3;1.1;;;;;;;;;;;;;
2020/02/23 04:19:38;;;;;;;1.3;1.1;;;;;;;;;;;;;
2020/02/23 04:22:26;;;;;;;1;0.9;;;;;;;;;;;;;
2020/02/23 04:25:15;;;;;;;1.3;1.1;;;;;;;;;;;;;
2020/02/23 04:28:04;;;;;;;1.2;1;;;;;;;;;;;;;
2020/02/23 04:30:52;;;;;;;1.3;1.1;;;;;;;;;;;;;
2020/02/23 04:33:41;;;;;;;1.2;1.1;;;;;;;;;;;;;
2020/02/23 04:36:30;;;;;;;1.2;1.1;;;;;;;;;;;;;
2020/02/23 04:39:18;;;;;;;1.1;1;;;;;;;;;;;;;
2020/02/23 04:42:07;;;;;;;1.3;1;;;;;;;;;;;;;
2020/02/23 04:44:56;;;;;;;1.1;1;;;;;;;;;;;;;
2020/02/23 04:47:44;;;;;;;1.2;1.1;;;;;;;;;;;;;
2020/02/23 04:50:33;;;;;;;1.3;1.1;;;;;;;;;;;;;
2020/02/23 04:53:22;;;;;;;1.1;0.9;;;;;;;;;;;;;
2020/02/23 04:56:10;;;;;;;1.8;1.3;;;;;;;;;;;;;
2020/02/23 04:58:59;;;;;;;1.5;1.2;;;;;;;;;;;;;
2020/02/23 05:01:48;;;;;;;1.3;1;;;;;;;;;;;;;
2020/02/23 05:04:36;;;;;;;1.3;1.1;;;;;;;;;;;;;
2020/02/23 05:07:25;;;;;;;1.7;1.1;;;;;;;;;;;;;
2020/02/23 05:10:13;;;;;;;1.5;1;;;;;;;;;;;;;
2020/02/23 05:12:46;;;;;;;1.3;1.2;;;;;;;;;;;;;
2020/02/23 05:15:17;;;;;;;1.5;1;;;;;;;;;;;;;
2020/02/23 05:17:49;;;;;;;1;0.9;;;;;;;;;;;;;
2020/02/23 05:20:21;;;;;;;1.2;1;;;;;;;;;;;;;
2020/02/23 05:22:53;;;;;;;1.8;1.1;;;;;;;;;;;;;
2020/02/23 05:25:26;;;;;;;1.2;1;;;;;;;;;;;;;
2020/02/23 05:27:57;;;;;;;1.9;1;;;;;;;;;;;;;
2020/02/23 05:30:29;;;;;;;1.3;1;;;;;;;;;;;;;
2020/02/23 05:33:00;;;;;;;1.7;1;;;;;;;;;;;;;
2020/02/23 05:35:33;;;;;;;1.6;1.2;;;;;;;;;;;;;
2020/02/23 05:38:05;;;;;;;1.3;1.1;;;;;;;;;;;;;
2020/02/23 05:40:36;;;;;;;1.1;1;;;;;;;;;;;;;
2020/02/23 05:43:08;;;;;;;1.8;1.2;;;;;;;;;;;;;
2020/02/23 05:45:40;;;;;;;1.6;1.1;;;;;;;;;;;;;
2020/02/23 05:48:13;;;;;;;1.1;1;;;;;;;;;;;;;
2020/02/23 05:50:45;;;;;;;1.2;1;;;;;;;;;;;;;
2020/02/23 05:53:16;;;;;;;1.1;1;;;;;;;;;;;;;
2020/02/23 05:55:49;;;;;;;1.5;1;;;;;;;;;;;;;
2020/02/23 05:58:21;;;;;;;1.1;1;;;;;;;;;;;;;
2020/02/23 06:00:53;;;;;;;1.1;1;;;;;;;;;;;;;
2020/02/23 06:03:25;;;;;;;1.7;1.1;;;;;;;;;;;;;
2020/02/23 06:05:57;;;;;;;1.3;1.1;;;;;;;;;;;;;
2020/02/23 06:08:29;;;;;;;1.1;1;;;;;;;;;;;;;
2020/02/23 06:11:01;;;;;;;1.5;1.3;;;;;;;;;;;;;
2020/02/23 06:13:33;;;;;;;1.4;1.1;;;;;;;;;;;;;
2020/02/23 06:16:05;;;;;;;1.7;1.2;;;;;;;;;;;;;
2020/02/23 06:18:37;;;;;;;1.1;1;;;;;;;;;;;;;
2020/02/23 06:21:09;;;;;;;1.5;1.2;;;;;;;;;;;;;
2020/02/23 06:23:41;;;;;;;1.2;1.1;;;;;;;;;;;;;
2020/02/23 06:26:13;;;;;;;7.5;1.6;;;;;;;;;;;;;
2020/02/23 06:28:45;;;;;;;2.1;1.1;;;;;;;;;;;;;
2020/02/23 06:31:17;;;;;;;1.2;1;;;;;;;;;;;;;
2020/02/23 06:33:49;;;;;;;1.2;0.9;;;;;;;;;;;;;
2020/02/23 06:36:21;;;;;;;2.7;1.2;;;;;;;;;;;;;
2020/02/23 06:38:53;;;;;;;2.4;1.2;;;;;;;;;;;;;
2020/02/23 06:41:25;;;;;;;2.9;1.3;;;;;;;;;;;;;
2020/02/23 06:43:57;;;;;;;2.2;1.1;;;;;;;;;;;;;
2020/02/23 06:46:54;;;;;;;2.2;1.2;;;;;;;;;;;;;
2020/02/23 06:49:28;;;;;;;2.5;1.3;;;;;;;;;;;;;
2020/02/23 06:52:00;;;;;;;2.6;1.2;;;;;;;;;;;;;
2020/02/23 06:54:32;;;;;;;5.4;1.2;;;;;;;;;;;;;
2020/02/23 06:57:04;;;;;;;5.8;1.4;;;;;;;;;;;;;
2020/02/23 06:59:36;;;;;;;2.8;1.1;;;;;;;;;;;;;
2020/02/23 07:02:08;;;;;;;1.9;1.3;;;;;;;;;;;;;
2020/02/23 07:04:40;;;;;;;1.9;1.2;;;;;;;;;;;;;
2020/02/23 07:07:12;;;;;;;1.5;1.2;;;;;;;;;;;;;
2020/02/23 07:09:44;;;;;;;2.1;1.2;;;;;;;;;;;;;
2020/02/23 07:12:16;;;;;;;2.5;1.4;;;;;;;;;;;;;
2020/02/23 07:14:48;;;;;;;1.8;1.1;;;;;;;;;;;;;
2020/02/23 07:17:20;;;;;;;2.3;1.2;;;;;;;;;;;;;
2020/02/23 07:19:52;;;;;;;2.3;1.2;;;;;;;;;;;;;
2020/02/23 07:22:24;;;;;;;3.4;1.5;;;;;;;;;;;;;
2020/02/23 07:24:56;;;;;;;3.8;1.2;;;;;;;;;;;;;
2020/02/23 07:27:28;;;;;;;2.2;1.2;;;;;;;;;;;;;
2020/02/23 07:30:00;;;;;;;3.9;1.5;;;;;;;;;;;;;
2020/02/23 07:32:33;;;;;;;2.8;1.2;;;;;;;;;;;;;
2020/02/23 07:35:05;;;;;;;4.1;1.3;;;;;;;;;;;;;
2020/02/23 07:37:36;;;;;;;2.6;1.3;;;;;;;;;;;;;
2020/02/23 07:40:08;;;;;;;2.6;1.1;;;;;;;;;;;;;
2020/02/23 07:42:40;;;;;;;2.8;1.4;;;;;;;;;;;;;
2020/02/23 07:45:12;;;;;;;1.6;1.2;;;;;;;;;;;;;
2020/02/23 07:47:44;;;;;;;1.8;1.2;;;;;;;;;;;;;
2020/02/23 07:50:16;;;;;;;3.2;1.3;;;;;;;;;;;;;
2020/02/23 07:52:48;;;;;;;4.1;1.2;;;;;;;;;;;;;
2020/02/23 07:55:20;;;;;;;2.3;1.4;;;;;;;;;;;;;
2020/02/23 07:57:52;;;;;;;2.3;1.5;;;;;;;;;;;;;
2020/02/23 08:00:24;;;;;;;4.8;1.3;;;;;;;;;;;;;
2020/02/23 08:02:56;;;;;;;2.4;1.2;;;;;;;;;;;;;
2020/02/23 08:05:28;;;;;;;2.9;1.4;;;;;;;;;;;;;
2020/02/23 08:08:00;;;;;;;3.3;1.3;;;;;;;;;;;;;
2020/02/23 08:10:32;;;;;;;2.5;1.3;;;;;;;;;;;;;
2020/02/23 08:13:04;;;;;;;3.7;1.2;;;;;;;;;;;;;
2020/02/23 08:15:37;;;;;;;2.8;1.3;;;;;;;;;;;;;
2020/02/23 08:18:08;;;;;;;2.8;1.2;;;;;;;;;;;;;
2020/02/23 08:20:40;;;;;;;3.1;1.3;;;;;;;;;;;;;
2020/02/23 08:23:12;;;;;;;4;1.5;;;;;;;;;;;;;
2020/02/23 08:25:44;;;;;;;3.3;1.3;;;;;;;;;;;;;
2020/02/23 08:28:17;;;;;;;2.4;1.4;;;;;;;;;;;;;
2020/02/23 08:30:48;;;;;;;2.1;1.2;;;;;;;;;;;;;
2020/02/23 08:33:20;;;;;;;4;1.5;;;;;;;;;;;;;
2020/02/23 08:35:52;;;;;;;4.1;1.6;;;;;;;;;;;;;
2020/02/23 08:38:24;;;;;;;5.5;1.7;;;;;;;;;;;;;
2020/02/23 08:40:57;;;;;;;3.8;1.2;;;;;;;;;;;;;
2020/02/23 08:43:28;;;;;;;3.3;1.1;;;;;;;;;;;;;
2020/02/23 08:46:00;;;;;;;3.3;1.4;;;;;;;;;;;;;
2020/02/23 08:48:33;;;;;;;4.1;1.3;;;;;;;;;;;;;
2020/02/23 08:51:05;;;;;;;4;1.5;;;;;;;;;;;;;
2020/02/23 08:53:38;;;;;;;4.4;1.6;;;;;;;;;;;;;
2020/02/23 08:56:10;;;;;;;5.5;1.6;;;;;;;;;;;;;
2020/02/23 08:58:43;;;;;;;1.8;1.2;;;;;;;;;;;;;
2020/02/23 09:04:07;;;;;;;3.4;1.5;;;;;;;;;;;;;
2020/02/23 09:06:40;;;;;;;4;1.4;;;;;;;;;;;;;
2020/02/23 09:09:12;;;;;;;5.8;1.7;;;;;;;;;;;;;
2020/02/23 09:11:52;;;;;;;4.8;1.8;;;;;;;;;;;;;
2020/02/23 09:14:25;;;;;;;4.5;1.6;;;;;;;;;;;;;
2020/02/23 09:16:57;;;;;;;6.9;1.8;;;;;;;;;;;;;
2020/02/23 09:19:31;;;;;;;8.4;2.3;;;;;;;;;;;;;
2020/02/23 09:22:03;;;;;;;11.1;2.2;;;;;;;;;;;;;
2020/02/23 10:09:09;;;;;;;1.6;1.5;;;;;;;;;;;;;
2020/02/23 10:11:44;;;;;;;3.6;1.8;;;;;;;;;;;;;
2020/02/23 10:14:15;;;;;;;3.8;2.1;;;;;;;;;;;;;
2020/02/23 10:16:47;;;;;;;3.2;1.8;;;;;;;;;;;;;
2020/02/23 10:19:19;;;;;;;4.6;2.1;;;;;;;;;;;;;
2020/02/23 10:21:51;;;;;;;3.7;1.9;;;;;;;;;;;;;
2020/02/23 10:24:23;;;;;;;3.2;1.8;;;;;;;;;;;;;
2020/02/23 10:26:55;;;;;;;4.2;1.8;;;;;;;;;;;;;
2020/02/23 10:29:27;;;;;;;1.7;1.6;;;;;;;;;;;;;
2020/02/23 10:31:59;;;;;;;3.9;1.9;;;;;;;;;;;;;
2020/02/23 10:34:31;;;;;;;2.4;1.6;;;;;;;;;;;;;
2020/02/23 10:37:03;;;;;;;2.7;1.7;;;;;;;;;;;;;
2020/02/23 10:39:35;;;;;;;3.7;1.8;;;;;;;;;;;;;
2020/02/23 10:42:07;;;;;;;2.9;1.9;;;;;;;;;;;;;
2020/02/23 10:44:39;;;;;;;2.6;1.8;;;;;;;;;;;;;
2020/02/23 10:47:11;;;;;;;2.9;1.8;;;;;;;;;;;;;
2020/02/23 10:49:43;;;;;;;3.8;1.7;;;;;;;;;;;;;
2020/02/23 10:52:15;;;;;;;3.2;1.7;;;;;;;;;;;;;
2020/02/23 10:54:47;;;;;;;3;1.8;;;;;;;;;;;;;
2020/02/23 10:57:19;;;;;;;3.3;1.6;;;;;;;;;;;;;
2020/02/23 10:59:51;;;;;;;4.1;1.8;;;;;;;;;;;;;
2020/02/23 11:02:23;;;;;;;3.1;1.7;;;;;;;;;;;;;
2020/02/23 11:04:55;;;;;;;2.4;1.7;;;;;;;;;;;;;
2020/02/23 11:07:27;;;;;;;2.4;1.7;;;;;;;;;;;;;
2020/02/23 11:09:59;;;;;;;2.6;1.8;;;;;;;;;;;;;
2020/02/23 11:12:32;;;;;;;3.4;1.9;;;;;;;;;;;;;
2020/02/23 11:15:04;;;;;;;2.5;1.7;;;;;;;;;;;;;
2020/02/23 11:17:36;;;;;;;2.3;1.6;;;;;;;;;;;;;
2020/02/23 11:20:08;;;;;;;2.6;1.6;;;;;;;;;;;;;
2020/02/23 11:22:40;;;;;;;3.3;1.8;;;;;;;;;;;;;
2020/02/23 11:25:13;;;;;;;4.4;2;;;;;;;;;;;;;
2020/02/23 11:27:45;;;;;;;3.7;1.7;;;;;;;;;;;;;
2020/02/23 11:30:17;;;;;;;2.5;1.8;;;;;;;;;;;;;
2020/02/23 11:32:49;;;;;;;3.2;1.8;;;;;;;;;;;;;
2020/02/23 11:35:21;;;;;;;3.6;1.7;;;;;;;;;;;;;
2020/02/23 11:37:54;;;;;;;4;1.8;;;;;;;;;;;;;
2020/02/23 11:40:26;;;;;;;2.7;1.6;;;;;;;;;;;;;
2020/02/23 11:42:58;;;;;;;2.6;1.6;;;;;;;;;;;;;
2020/02/23 11:45:30;;;;;;;2.6;1.5;;;;;;;;;;;;;
2020/02/23 11:48:01;;;;;;;3.2;1.5;;;;;;;;;;;;;
2020/02/23 11:50:33;;;;;;;3.2;1.5;;;;;;;;;;;;;
2020/02/23 11:53:05;;;;;;;2.4;1.5;;;;;;;;;;;;;
2020/02/23 11:55:37;;;;;;;2.8;1.5;;;;;;;;;;;;;
2020/02/23 11:58:09;;;;;;;3.7;1.7;;;;;;;;;;;;;
2020/02/23 12:00:41;;;;;;;2.1;1.4;;;;;;;;;;;;;
2020/02/23 12:03:13;;;;;;;1.9;1.3;;;;;;;;;;;;;
2020/02/23 12:05:45;;;;;;;2.6;1.6;;;;;;;;;;;;;
2020/02/23 12:08:18;;;;;;;2.3;1.7;;;;;;;;;;;;;
2020/02/23 12:10:50;;;;;;;3.1;1.7;;;;;;;;;;;;;
2020/02/23 12:13:21;;;;;;;3.5;1.6;;;;;;;;;;;;;
2020/02/23 12:15:53;;;;;;;2.1;1.5;;;;;;;;;;;;;
2020/02/23 12:18:25;;;;;;;2.8;1.5;;;;;;;;;;;;;
2020/02/23 12:20:57;;;;;;;2.4;1.8;;;;;;;;;;;;;
2020/02/23 12:23:29;;;;;;;3.3;1.7;;;;;;;;;;;;;
2020/02/23 12:26:02;;;;;;;3;1.6;;;;;;;;;;;;;
2020/02/23 12:28:34;;;;;;;1.7;1.6;;;;;;;;;;;;;
2020/02/23 12:31:06;;;;;;;1.9;1.5;;;;;;;;;;;;;
2020/02/23 12:33:38;;;;;;;2.2;1.6;;;;;;;;;;;;;
2020/02/23 12:36:10;;;;;;;2.5;1.5;;;;;;;;;;;;;
2020/02/23 12:38:42;;;;;;;4.2;1.9;;;;;;;;;;;;;
2020/02/23 12:41:14;;;;;;;3.9;1.9;;;;;;;;;;;;;
2020/02/23 12:43:46;;;;;;;3.1;1.7;;;;;;;;;;;;;
2020/02/23 12:46:18;;;;;;;3.3;1.8;;;;;;;;;;;;;
2020/02/23 12:48:50;;;;;;;2.8;1.8;;;;;;;;;;;;;
2020/02/23 12:51:22;;;;;;;3.3;1.8;;;;;;;;;;;;;
2020/02/23 12:53:54;;;;;;;2.8;1.7;;;;;;;;;;;;;
2020/02/23 12:56:26;;;;;;;3;1.7;;;;;;;;;;;;;
2020/02/23 12:58:58;;;;;;;2.2;1.7;;;;;;;;;;;;;
2020/02/23 13:01:30;;;;;;;2.2;1.7;;;;;;;;;;;;;
2020/02/23 13:04:02;;;;;;;1.9;1.4;;;;;;;;;;;;;
2020/02/23 13:06:34;;;;;;;2.3;1.6;;;;;;;;;;;;;
2020/02/23 13:09:06;;;;;;;3;1.7;;;;;;;;;;;;;
2020/02/23 13:11:42;;;;;;;2.1;1.6;;;;;;;;;;;;;
2020/02/23 13:14:13;;;;;;;3;1.7;;;;;;;;;;;;;
2020/02/23 13:16:45;;;;;;;3.1;1.6;;;;;;;;;;;;;
2020/02/23 13:19:18;;;;;;;4.8;1.7;;;;;;;;;;;;;
2020/02/23 13:21:50;;;;;;;2.7;1.7;;;;;;;;;;;;;
2020/02/23 13:24:22;;;;;;;2;1.6;;;;;;;;;;;;;
2020/02/23 13:26:54;;;;;;;2.7;1.6;;;;;;;;;;;;;
2020/02/23 13:29:25;;;;;;;2.2;1.4;;;;;;;;;;;;;
2020/02/23 13:31:57;;;;;;;2.9;1.3;;;;;;;;;;;;;
2020/02/23 13:34:30;;;;;;;2.5;1.3;;;;;;;;;;;;;
2020/02/23 13:37:02;;;;;;;2.6;1.4;;;;;;;;;;;;;
2020/02/23 13:39:34;;;;;;;2.3;1.5;;;;;;;;;;;;;
2020/02/23 13:42:08;;;;;;;2.3;1.5;;;;;;;;;;;;;
2020/02/23 13:44:41;;;;;;;2.2;1.5;;;;;;;;;;;;;
2020/02/23 13:47:13;;;;;;;3.2;1.6;;;;;;;;;;;;;
2020/02/23 13:49:45;;;;;;;3.5;1.6;;;;;;;;;;;;;
2020/02/23 13:52:17;;;;;;;2;1.4;;;;;;;;;;;;;
2020/02/23 13:54:49;;;;;;;2.4;1.2;;;;;;;;;;;;;
2020/02/23 13:57:21;;;;;;;2.5;1.4;;;;;;;;;;;;;
2020/02/23 13:59:53;;;;;;;1.9;1.5;;;;;;;;;;;;;
2020/02/23 14:02:25;;;;;;;1.8;1.4;;;;;;;;;;;;;
2020/02/23 14:04:57;;;;;;;1.7;1.4;;;;;;;;;;;;;
2020/02/23 14:07:29;;;;;;;3.3;1.5;;;;;;;;;;;;;
2020/02/23 14:10:01;;;;;;;2.7;1.5;;;;;;;;;;;;;
2020/02/23 14:12:33;;;;;;;3.3;1.7;;;;;;;;;;;;;
2020/02/23 14:15:06;;;;;;;1.7;1.3;;;;;;;;;;;;;
2020/02/23 14:17:44;;;;;;;1.7;1.1;;;;;;;;;;;;;
2020/02/23 14:22:47;;;;;;;2.7;1.4;;;;;;;;;;;;;
2020/02/23 14:25:19;;;;;;;2.2;1.3;;;;;;;;;;;;;
2020/02/23 14:27:52;;;;;;;2.9;1.4;;;;;;;;;;;;;
2020/02/23 14:30:24;;;;;;;2.5;1.2;;;;;;;;;;;;;
2020/02/23 14:32:56;;;;;;;1.8;1.1;;;;;;;;;;;;;
2020/02/23 14:35:28;;;;;;;1.6;1.3;;;;;;;;;;;;;
2020/02/23 14:38:03;;;;;;;1.8;1.2;;;;;;;;;;;;;
2020/02/23 14:40:35;;;;;;;1.5;1.2;;;;;;;;;;;;;
2020/02/23 14:43:09;;;;;;;3.3;1.4;;;;;;;;;;;;;
2020/02/23 14:45:40;;;;;;;1.8;1.3;;;;;;;;;;;;;
2020/02/23 14:48:12;;;;;;;1.9;1.3;;;;;;;;;;;;;
2020/02/23 14:50:44;;;;;;;2.3;1.3;;;;;;;;;;;;;
2020/02/23 14:53:16;;;;;;;2.9;1.1;;;;;;;;;;;;;
2020/02/23 14:55:47;;;;;;;1.5;1.2;;;;;;;;;;;;;
2020/02/23 14:58:24;;;;;;;1.8;1.4;;;;;;;;;;;;;
2020/02/23 15:00:56;;;;;;;1.5;1.2;;;;;;;;;;;;;
2020/02/23 15:03:28;;;;;;;1.7;1.2;;;;;;;;;;;;;
2020/02/23 15:06:00;;;;;;;1.7;1.3;;;;;;;;;;;;;
2020/02/23 15:08:31;;;;;;;2.6;1.2;;;;;;;;;;;;;
2020/02/23 15:11:08;;;;;;;1.4;1.2;;;;;;;;;;;;;
2020/02/23 15:13:40;;;;;;;2.1;1.2;;;;;;;;;;;;;
2020/02/23 15:16:11;;;;;;;1.4;1;;;;;;;;;;;;;
2020/02/23 15:18:44;;;;;;;3;1;;;;;;;;;;;;;
2020/02/23 15:21:15;;;;;;;2;1.2;;;;;;;;;;;;;
2020/02/23 15:23:47;;;;;;;1.8;1.1;;;;;;;;;;;;;
2020/02/23 15:26:19;;;;;;;1.2;1;;;;;;;;;;;;;
2020/02/23 15:28:52;;;;;;;1.8;1.1;;;;;;;;;;;;;
2020/02/23 15:31:24;;;;;;;3.5;1.1;;;;;;;;;;;;;
2020/02/23 15:33:56;;;;;;;1.5;0.9;;;;;;;;;;;;;
2020/02/23 15:36:28;;;;;;;3.7;1.1;;;;;;;;;;;;;
2020/02/23 15:39:00;;;;;;;1.2;0.9;;;;;;;;;;;;;
2020/02/23 15:41:33;;;;;;;1.2;1;;;;;;;;;;;;;
2020/02/23 15:44:08;;;;;;;1.3;1;;;;;;;;;;;;;
2020/02/23 15:46:41;;;;;;;1.4;0.9;;;;;;;;;;;;;
2020/02/23 15:49:15;;;;;;;1.9;1.1;;;;;;;;;;;;;
2020/02/23 15:51:47;;;;;;;2.1;1;;;;;;;;;;;;;
2020/02/23 15:54:19;;;;;;;2.1;0.9;;;;;;;;;;;;;
2020/02/23 15:56:50;;;;;;;1.2;1;;;;;;;;;;;;;
2020/02/23 15:59:22;;;;;;;1;0.9;;;;;;;;;;;;;
2020/02/23 16:01:55;;;;;;;2.3;1.1;;;;;;;;;;;;;
2020/02/23 16:04:27;;;;;;;1.2;0.9;;;;;;;;;;;;;
2020/02/23 16:06:59;;;;;;;1.3;1;;;;;;;;;;;;;
2020/02/23 16:09:31;;;;;;;1.5;1.1;;;;;;;;;;;;;
2020/02/23 16:12:04;;;;;;;1.5;1.2;;;;;;;;;;;;;
2020/02/23 16:14:35;;;;;;;2.1;1;;;;;;;;;;;;;
2020/02/23 16:17:07;;;;;;;1.3;1;;;;;;;;;;;;;
2020/02/23 16:19:39;;;;;;;1.1;1;;;;;;;;;;;;;
2020/02/23 16:22:11;;;;;;;1.5;1;;;;;;;;;;;;;
2020/02/23 16:24:43;;;;;;;2.4;1.1;;;;;;;;;;;;;
2020/02/23 16:27:15;;;;;;;1.1;1;;;;;;;;;;;;;
2020/02/23 16:29:46;;;;;;;1.6;1;;;;;;;;;;;;;
2020/02/23 16:32:18;;;;;;;1.7;1;;;;;;;;;;;;;
2020/02/23 16:34:50;;;;;;;1.7;1;;;;;;;;;;;;;
2020/02/23 16:37:22;;;;;;;1.4;1.1;;;;;;;;;;;;;
2020/02/23 16:39:53;;;;;;;1.6;1.1;;;;;;;;;;;;;
2020/02/23 16:42:25;;;;;;;1.2;0.9;;;;;;;;;;;;;
2020/02/23 16:44:57;;;;;;;1.1;1;;;;;;;;;;;;;
2020/02/23 16:47:31;;;;;;;1.2;1.1;;;;;;;;;;;;;
2020/02/23 16:50:03;;;;;;;2.3;1.1;;;;;;;;;;;;;
2020/02/23 16:52:35;;;;;;;1.2;0.9;;;;;;;;;;;;;
2020/02/23 16:55:07;;;;;;;1.4;1.1;;;;;;;;;;;;;
2020/02/23 16:57:39;;;;;;;1;0.9;;;;;;;;;;;;;
2020/02/23 17:00:11;;;;;;;1.6;0.9;;;;;;;;;;;;;
2020/02/23 17:02:43;;;;;;;1.7;1.1;;;;;;;;;;;;;
2020/02/23 17:05:15;;;;;;;2.5;1.1;;;;;;;;;;;;;
2020/02/23 17:07:47;;;;;;;1;0.9;;;;;;;;;;;;;
2020/02/23 17:10:19;;;;;;;2.6;1.1;;;;;;;;;;;;;
2020/02/23 17:12:51;;;;;;;1.5;1.1;;;;;;;;;;;;;
2020/02/23 17:15:21;;;;;;;2.3;1.3;;;;;;;;;;;;;
2020/02/23 17:17:53;;;;;;;2.8;1.2;;;;;;;;;;;;;
2020/02/23 17:20:25;;;;;;;1.3;1;;;;;;;;;;;;;
2020/02/23 17:22:56;;;;;;;2.2;1.2;;;;;;;;;;;;;
2020/02/23 17:25:28;;;;;;;1.3;1.2;;;;;;;;;;;;;
2020/02/23 17:28:00;;;;;;;1.1;1;;;;;;;;;;;;;
2020/02/23 17:30:32;;;;;;;2;1.3;;;;;;;;;;;;;
2020/02/23 17:33:04;;;;;;;1.7;1.3;;;;;;;;;;;;;
2020/02/23 17:35:36;;;;;;;2.2;1.4;;;;;;;;;;;;;
2020/02/23 17:38:45;;;;;;;1.5;1.2;;;;;;;;;;;;;
2020/02/23 17:40:40;;;;;;;1.6;1.2;;;;;;;;;;;;;
2020/02/23 17:43:12;;;;;;;1.2;1;;;;;;;;;;;;;
2020/02/23 17:45:44;;;;;;;2.5;1.1;;;;;;;;;;;;;
2020/02/23 17:48:15;;;;;;;1.8;1.2;;;;;;;;;;;;;
2020/02/23 17:50:47;;;;;;;1.8;1.1;;;;;;;;;;;;;
2020/02/23 17:53:19;;;;;;;1.3;1;;;;;;;;;;;;;
2020/02/23 17:55:51;;;;;;;2.6;1.4;;;;;;;;;;;;;
2020/02/23 18:01:11;;;;;;;1.6;1.3;;;;;;;;;;;;;
2020/02/23 18:03:45;;;;;;;1.6;1.2;;;;;;;;;;;;;
2020/02/23 18:06:17;;;;;;;2.7;1.1;;;;;;;;;;;;;
2020/02/23 18:08:49;;;;;;;1.7;1.2;;;;;;;;;;;;;
2020/02/23 18:11:30;;;;;;;1.8;1.1;;;;;;;;;;;;;
2020/02/23 18:14:04;;;;;;;1.4;1.2;;;;;;;;;;;;;
2020/02/23 18:16:36;;;;;;;1.2;1.1;;;;;;;;;;;;;
2020/02/23 18:19:09;;;;;;;1.2;1.1;;;;;;;;;;;;;
2020/02/23 18:21:41;;;;;;;1.8;1;;;;;;;;;;;;;
2020/02/23 18:24:14;;;;;;;1.4;1.2;;;;;;;;;;;;;
2020/02/23 18:29:38;;;;;;;2.2;1.1;;;;;;;;;;;;;
2020/02/23 18:35:08;;;;;;;1.3;0.9;;;;;;;;;;;;;
2020/02/23 18:37:41;;;;;;;2.1;1.1;;;;;;;;;;;;;
2020/02/23 18:40:13;;;;;;;1.2;1;;;;;;;;;;;;;
2020/02/23 18:42:45;;;;;;;1.6;1.1;;;;;;;;;;;;;
2020/02/23 18:45:17;;;;;;;1.2;1.1;;;;;;;;;;;;;
2020/02/23 18:47:49;;;;;;;1.5;1.2;;;;;;;;;;;;;
2020/02/23 18:50:23;;;;;;;2;1.1;;;;;;;;;;;;;
2020/02/23 18:52:55;;;;;;;2.3;1.2;;;;;;;;;;;;;
2020/02/23 18:55:27;;;;;;;1.8;1.2;;;;;;;;;;;;;
2020/02/23 18:57:59;;;;;;;1.8;1.3;;;;;;;;;;;;;
2020/02/23 19:00:31;;;;;;;1.2;1.1;;;;;;;;;;;;;
2020/02/23 19:03:03;;;;;;;2.1;1.2;;;;;;;;;;;;;
2020/02/23 19:05:35;;;;;;;1.9;1.1;;;;;;;;;;;;;
2020/02/23 19:11:03;;;;;;;1.7;1;;;;;;;;;;;;;
2020/02/23 19:13:39;;;;;;;1.4;1;;;;;;;;;;;;;
2020/02/23 19:16:10;;;;;;;1.2;1.1;;;;;;;;;;;;;
2020/02/23 19:18:42;;;;;;;1.7;1;;;;;;;;;;;;;
2020/02/23 19:21:14;;;;;;;2.6;1.1;;;;;;;;;;;;;
2020/02/23 19:23:46;;;;;;;1.8;1.3;;;;;;;;;;;;;
2020/02/23 19:26:17;;;;;;;2.1;1.1;;;;;;;;;;;;;
2020/02/23 19:28:49;;;;;;;2;1;;;;;;;;;;;;;
2020/02/23 19:31:21;;;;;;;1.2;0.9;;;;;;;;;;;;;
2020/02/23 19:33:53;;;;;;;1.7;1;;;;;;;;;;;;;
2020/02/23 19:36:24;;;;;;;2.2;1.2;;;;;;;;;;;;;
2020/02/23 19:38:56;;;;;;;2.2;1.1;;;;;;;;;;;;;
2020/02/23 19:41:29;;;;;;;1.8;1.3;;;;;;;;;;;;;
2020/02/23 19:44:03;;;;;;;2.4;1.2;;;;;;;;;;;;;
2020/02/23 19:46:35;;;;;;;2;1.3;;;;;;;;;;;;;
2020/02/23 19:49:07;;;;;;;4.1;1.3;;;;;;;;;;;;;
2020/02/23 19:51:38;;;;;;;1.7;1.2;;;;;;;;;;;;;
2020/02/23 19:54:10;;;;;;;1.5;1.2;;;;;;;;;;;;;
2020/02/23 19:56:42;;;;;;;3.1;1.1;;;;;;;;;;;;;
2020/02/23 19:59:14;;;;;;;2.3;1.4;;;;;;;;;;;;;
2020/02/23 20:01:46;;;;;;;1.2;1.1;;;;;;;;;;;;;
2020/02/23 20:04:18;;;;;;;2.7;1.4;;;;;;;;;;;;;
2020/02/23 20:06:50;;;;;;;2.1;1.3;;;;;;;;;;;;;
2020/02/23 20:09:21;;;;;;;2.1;1.4;;;;;;;;;;;;;
2020/02/23 20:11:53;;;;;;;2.4;1.5;;;;;;;;;;;;;
2020/02/23 20:14:25;;;;;;;1.5;1.3;;;;;;;;;;;;;
2020/02/23 20:16:58;;;;;;;2.1;1.5;;;;;;;;;;;;;
2020/02/23 20:19:30;;;;;;;2.9;1.4;;;;;;;;;;;;;
2020/02/23 20:22:02;;;;;;;2;1.3;;;;;;;;;;;;;
2020/02/23 20:24:34;;;;;;;1.9;1.4;;;;;;;;;;;;;
2020/02/23 20:27:06;;;;;;;2.4;1.3;;;;;;;;;;;;;
2020/02/23 20:29:38;;;;;;;3;1.6;;;;;;;;;;;;;
2020/02/23 20:32:11;;;;;;;2.7;1.6;;;;;;;;;;;;;
2020/02/23 20:34:43;;;;;;;1.7;1.4;;;;;;;;;;;;;
2020/02/23 20:37:15;;;;;;;3.8;1.6;;;;;;;;;;;;;
2020/02/23 20:39:46;;;;;;;3.5;1.6;;;;;;;;;;;;;
2020/02/23 20:42:18;;;;;;;2.1;1.5;;;;;;;;;;;;;
2020/02/23 20:44:50;;;;;;;2.2;1.5;;;;;;;;;;;;;
2020/02/23 20:47:22;;;;;;;2.9;1.7;;;;;;;;;;;;;
2020/02/23 20:49:54;;;;;;;3.4;1.8;;;;;;;;;;;;;
2020/02/23 20:52:26;;;;;;;1.5;1.3;;;;;;;;;;;;;
2020/02/23 20:54:58;;;;;;;3;1.8;;;;;;;;;;;;;
2020/02/23 20:57:30;;;;;;;4;1.7;;;;;;;;;;;;;
2020/02/23 21:00:03;;;;;;;2.9;2;;;;;;;;;;;;;
2020/02/23 21:02:37;;;;;;;3.2;2;;;;;;;;;;;;;
2020/02/23 21:05:09;;;;;;;2.7;1.6;;;;;;;;;;;;;
2020/02/23 21:07:41;;;;;;;2.8;1.7;;;;;;;;;;;;;
2020/02/23 21:10:13;;;;;;;5.7;2;;;;;;;;;;;;;
2020/02/23 21:12:45;;;;;;;4.6;1.8;;;;;;;;;;;;;
2020/02/23 21:15:18;;;;;;;2.5;1.7;;;;;;;;;;;;;
2020/02/23 21:17:50;;;;;;;3.2;1.9;;;;;;;;;;;;;
2020/02/23 21:20:22;;;;;;;2.7;1.7;;;;;;;;;;;;;
2020/02/23 21:22:54;;;;;;;2.9;1.8;;;;;;;;;;;;;
2020/02/23 21:25:25;;;;;;;4;2;;;;;;;;;;;;;
2020/02/23 21:27:58;;;;;;;3.5;2.1;;;;;;;;;;;;;
2020/02/23 21:30:30;;;;;;;3.4;1.8;;;;;;;;;;;;;
2020/02/23 21:33:02;;;;;;;3.3;2;;;;;;;;;;;;;
2020/02/23 21:35:33;;;;;;;4.6;2;;;;;;;;;;;;;
2020/02/23 21:38:08;;;;;;;3.1;1.8;;;;;;;;;;;;;
2020/02/23 21:40:41;;;;;;;2.7;1.8;;;;;;;;;;;;;
2020/02/23 21:43:14;;;;;;;3.5;2;;;;;;;;;;;;;
2020/02/23 21:45:46;;;;;;;3.6;1.9;;;;;;;;;;;;;
2020/02/23 21:48:18;;;;;;;3.7;2;;;;;;;;;;;;;
2020/02/23 21:50:51;;;;;;;4.1;2.1;;;;;;;;;;;;;
2020/02/23 21:53:23;;;;;;;4.1;1.9;;;;;;;;;;;;;
2020/02/23 21:55:57;;;;;;;3.5;2;;;;;;;;;;;;;
2020/02/23 21:58:31;;;;;;;3.6;1.8;;;;;;;;;;;;;
2020/02/23 22:01:04;;;;;;;2.8;2.1;;;;;;;;;;;;;
2020/02/23 22:03:42;;;;;;;3.1;1.7;;;;;;;;;;;;;
2020/02/23 22:06:13;;;;;;;3.9;1.9;;;;;;;;;;;;;
2020/02/23 22:08:46;;;;;;;2.6;2;;;;;;;;;;;;;
2020/02/23 22:11:51;;;;;;;3.6;2.2;;;;;;;;;;;;;
2020/02/23 22:14:24;;;;;;;3.5;2;;;;;;;;;;;;;
2020/02/23 22:16:55;;;;;;;4.2;2;;;;;;;;;;;;;
2020/02/23 22:19:26;;;;;;;3.4;1.8;;;;;;;;;;;;;
